Аэропорт: Ханты-Мансийск. Ханты-Мансийск

ICAO: USHH

METAR:
2021-07-28 14:00:00
USHH 281400Z 28002MPS CAVOK 14/08 Q1003 R24/010060 NOSIG
METAR:
2021-07-28 10:43:00
TAF USHH 281043Z 2812/2912 24003G10MPS 9999 SCT020 TEMPO 2812/2818 26005G12MPS 5000 -SHRA FEW005 BKN016CB TEMPO 2906/2909 5000 -SHRA FEW005 BKN016CB